logo
Search for airport 
image banner adimage banner adimage banner ad
image banner ad

HKBR - Bura East

Located in Bura, Kenya

ICAO - HKBR, IATA -

Data provided by Airmate  

General information

Coordinates: S1°5'51" E39°56'57"
Elevation is 345 feet MSL.
Magnetic variation is 0° East
View others Airports in Coast Province

Operational data

Special qualification required
Current time UTC:
Current local time:
Weather at : HKGA - Garissa ( 78 km )
METAR: HKGA 240600Z 18012KT CAVOK 27/20 Q1014
View NOTAMs / SUP AIP / TFR affecting this airport [VIEW]
Communications frequencies: [VIEW]

Runways:

RWY identifierQFULength (ft)Width (ft)SurfaceLDA (ft)
33333°334195SAND
15153°334195SAND

Airport contact information

Address: Bura Kenya

Satellite view of HKBR